Kah Nee Ta, Oregon
Current Conditions -  °F | °C
As of 10:56 AM on Monday 20 Oct 2014 (Local Time) from KRDM Reporting Station
Overcast Overcast  
Wind Chill: 63°   Ceiling: 6500
Heat Index: 63°   Visibility: 10mi
Dew Point: 41°   Wind: 7mph
Humidity: 45%   Direction: 240°WSW
Pressure: 29.79"   Gusts: NA
Location:  44.7239°N, 121.498°W
Report Text: KRDM 201756Z 24006KT 10SM BKN065 OVC095 17/05 A2979 RMK AO2 SLP074 T01720050 10172 20067 58001
Loading
Personal Weather Stations






























Interactive Weather Map
Tropical Storm Tracking
New forecast layout! Learn more

10-Day Weather Forecast

Advertisements
Track Severe Weather on mobile